Tipton, TN (38071)

2:56 AM CST on November 22, 2014 (GMT -0600)
KTNMUNFO2 | Change Station
CLOSE
Current Station
Personal Weather Station
Location: Munford, TN
Elevation: 394 ft
Nearby Weather Stations

Elev 394 ft 35.42 °N, 89.83 °W | Updated 4 minutes ago

Partly Cloudy
Partly Cloudy
48.6 °F
Feels Like 49 °F
N
2.2
Wind Variable Wind from SSE

Today
High -- | Low -- °F
--% Chance of Precip.
Yesterday
High -- | Low -- °F
Precip. -- in
6:41 AM 4:49 PM
Waning Crescent, 0% visible
Pressure 30.28 in
Visibility 10.0 miles
Clouds Scattered Clouds 11000 ft
Windchill 49 °F
Dew Point 45 °F
Humidity 88%
Rainfall 0.00 in
Snow Depth Not available.
UV 0 out of 12
Pollen .30 out of 12
Air Quality Not available.
Flu Activity Not available.
METAR KNQA 220835Z AUTO 00000KT 10SM SCT110 09/07 A3028 RMK

More Conditions Fewer Conditions

Pressure 30.28 in
Visibility 10.0 miles
Clouds Scattered Clouds 11000 ft
Windchill 49 °F
Dew Point 45 °F
Humidity 88%
Rainfall 0.00 in
Snow Depth Not available.
UV 0 out of 12
Pollen .30 out of 12
Air Quality Not available.
Flu Activity Not available.
METAR KNQA 220835Z AUTO 00000KT 10SM SCT110 09/07 A3028 RMK

More Conditions Fewer Conditions

10-Day Weather Forecast

Almanac

Astronomy

Nov. 22, 2014 Rise Set
Actual Time
Civil Twilight
Nautical Twilight
Astronomical Twilight
Moon
Length of Visible Light
Length of Day
Tomorrow will be .
, % of the Moon is Illuminated

Today's Extremes

State Highs State Lows

Community

WunderPhotos

Upload Photos

1,772,794 photos uploaded!

WunderBlogs® & News

Nearby

Air Quality

  Air Quality AQ Index Pollutant
Not available.

Snow Depth

Station Depth Elevation

Earthquake Activity

City Distance Mag. Time & Date
Minimum magnitude displayed is 2.5.

Coastal Water Temperatures

Place Temperature

Nearby Weather Stations